sensor_id;sensor_type;location;lat;lon;timestamp;P1;durP1;ratioP1;P2;durP2;ratioP2
71116;SDS011;58775;46.992;9.518;2023-08-20T00:01:39;10.48;;;4.10;;
71116;SDS011;58775;46.992;9.518;2023-08-20T00:03:40;9.30;;;4.20;;
71116;SDS011;58775;46.992;9.518;2023-08-20T00:05:42;9.15;;;4.47;;
71116;SDS011;58775;46.992;9.518;2023-08-20T00:07:43;8.60;;;4.00;;
71116;SDS011;58775;46.992;9.518;2023-08-20T00:09:44;10.35;;;4.35;;
71116;SDS011;58775;46.992;9.518;2023-08-20T00:11:45;12.18;;;4.57;;
71116;SDS011;58775;46.992;9.518;2023-08-20T00:13:46;11.20;;;4.57;;
71116;SDS011;58775;46.992;9.518;2023-08-20T00:15:48;10.68;;;4.40;;
71116;SDS011;58775;46.992;9.518;2023-08-20T00:17:49;10.55;;;4.60;;
71116;SDS011;58775;46.992;9.518;2023-08-20T00:19:50;10.70;;;4.80;;
71116;SDS011;58775;46.992;9.518;2023-08-20T00:21:51;10.23;;;4.38;;
71116;SDS011;58775;46.992;9.518;2023-08-20T00:23:52;10.40;;;4.70;;
71116;SDS011;58775;46.992;9.518;2023-08-20T00:25:53;12.00;;;4.35;;
71116;SDS011;58775;46.992;9.518;2023-08-20T00:27:55;10.15;;;4.82;;
71116;SDS011;58775;46.992;9.518;2023-08-20T00:29:56;6.78;;;4.13;;
71116;SDS011;58775;46.992;9.518;2023-08-20T00:31:57;9.13;;;4.30;;
71116;SDS011;58775;46.992;9.518;2023-08-20T00:33:58;12.33;;;5.23;;
71116;SDS011;58775;46.992;9.518;2023-08-20T00:35:59;10.70;;;4.60;;
71116;SDS011;58775;46.992;9.518;2023-08-20T00:38:00;10.70;;;4.60;;
71116;SDS011;58775;46.992;9.518;2023-08-20T00:40:02;9.38;;;4.53;;
71116;SDS011;58775;46.992;9.518;2023-08-20T00:42:07;12.07;;;4.35;;
71116;SDS011;58775;46.992;9.518;2023-08-20T00:44:08;7.43;;;4.00;;
71116;SDS011;58775;46.992;9.518;2023-08-20T00:46:09;8.80;;;4.47;;
71116;SDS011;58775;46.992;9.518;2023-08-20T00:48:11;12.57;;;4.35;;
71116;SDS011;58775;46.992;9.518;2023-08-20T00:50:12;7.30;;;3.97;;
71116;SDS011;58775;46.992;9.518;2023-08-20T00:52:17;13.52;;;4.40;;
71116;SDS011;58775;46.992;9.518;2023-08-20T00:54:18;10.10;;;4.13;;
71116;SDS011;58775;46.992;9.518;2023-08-20T00:56:20;10.57;;;4.93;;
71116;SDS011;58775;46.992;9.518;2023-08-20T00:58:21;9.13;;;5.18;;
71116;SDS011;58775;46.992;9.518;2023-08-20T01:00:23;10.25;;;4.55;;
71116;SDS011;58775;46.992;9.518;2023-08-20T01:02:25;9.52;;;4.75;;
71116;SDS011;58775;46.992;9.518;2023-08-20T01:04:26;7.83;;;4.10;;
71116;SDS011;58775;46.992;9.518;2023-08-20T01:06:34;7.45;;;4.00;;
71116;SDS011;58775;46.992;9.518;2023-08-20T01:08:41;7.45;;;3.95;;
71116;SDS011;58775;46.992;9.518;2023-08-20T01:10:51;8.23;;;4.97;;
71116;SDS011;58775;46.992;9.518;2023-08-20T01:12:57;10.15;;;4.13;;
71116;SDS011;58775;46.992;9.518;2023-08-20T01:15:00;7.00;;;4.18;;
71116;SDS011;58775;46.992;9.518;2023-08-20T01:17:01;9.38;;;4.43;;
71116;SDS011;58775;46.992;9.518;2023-08-20T01:19:02;11.50;;;4.50;;
71116;SDS011;58775;46.992;9.518;2023-08-20T01:21:06;10.63;;;4.53;;
71116;SDS011;58775;46.992;9.518;2023-08-20T01:26:30;8.00;;;4.35;;
71116;SDS011;58775;46.992;9.518;2023-08-20T01:28:50;8.10;;;4.38;;
71116;SDS011;58775;46.992;9.518;2023-08-20T01:30:51;9.30;;;4.63;;
71116;SDS011;58775;46.992;9.518;2023-08-20T01:32:55;8.00;;;4.82;;
71116;SDS011;58775;46.992;9.518;2023-08-20T01:34:56;8.20;;;4.33;;
71116;SDS011;58775;46.992;9.518;2023-08-20T01:36:57;8.55;;;4.22;;
71116;SDS011;58775;46.992;9.518;2023-08-20T01:38:58;13.20;;;4.95;;
71116;SDS011;58775;46.992;9.518;2023-08-20T01:40:59;9.32;;;3.95;;
71116;SDS011;58775;46.992;9.518;2023-08-20T01:43:00;9.27;;;4.28;;
71116;SDS011;58775;46.992;9.518;2023-08-20T01:45:01;9.63;;;4.00;;
71116;SDS011;58775;46.992;9.518;2023-08-20T01:47:03;13.95;;;4.40;;
71116;SDS011;58775;46.992;9.518;2023-08-20T01:49:04;9.63;;;4.20;;
71116;SDS011;58775;46.992;9.518;2023-08-20T01:51:04;9.10;;;4.10;;
71116;SDS011;58775;46.992;9.518;2023-08-20T01:53:05;8.82;;;3.85;;
71116;SDS011;58775;46.992;9.518;2023-08-20T01:55:06;9.53;;;4.37;;
71116;SDS011;58775;46.992;9.518;2023-08-20T01:57:07;13.25;;;4.30;;
71116;SDS011;58775;46.992;9.518;2023-08-20T01:59:08;11.75;;;3.85;;
71116;SDS011;58775;46.992;9.518;2023-08-20T02:01:09;7.47;;;4.00;;
71116;SDS011;58775;46.992;9.518;2023-08-20T02:03:10;11.57;;;4.68;;
71116;SDS011;58775;46.992;9.518;2023-08-20T02:05:11;12.52;;;4.53;;
71116;SDS011;58775;46.992;9.518;2023-08-20T02:07:12;8.15;;;4.43;;
71116;SDS011;58775;46.992;9.518;2023-08-20T02:09:13;8.88;;;4.30;;
71116;SDS011;58775;46.992;9.518;2023-08-20T02:11:15;7.43;;;3.58;;
71116;SDS011;58775;46.992;9.518;2023-08-20T02:13:19;8.57;;;3.85;;
71116;SDS011;58775;46.992;9.518;2023-08-20T02:15:20;9.80;;;4.43;;
71116;SDS011;58775;46.992;9.518;2023-08-20T02:17:21;9.27;;;3.90;;
71116;SDS011;58775;46.992;9.518;2023-08-20T02:19:23;9.57;;;4.53;;
71116;SDS011;58775;46.992;9.518;2023-08-20T02:21:25;9.80;;;3.35;;
71116;SDS011;58775;46.992;9.518;2023-08-20T02:23:26;10.87;;;3.87;;
71116;SDS011;58775;46.992;9.518;2023-08-20T02:25:27;9.25;;;4.32;;
71116;SDS011;58775;46.992;9.518;2023-08-20T02:27:29;11.63;;;4.38;;
71116;SDS011;58775;46.992;9.518;2023-08-20T02:29:30;9.37;;;4.17;;
71116;SDS011;58775;46.992;9.518;2023-08-20T02:31:31;10.02;;;4.25;;
71116;SDS011;58775;46.992;9.518;2023-08-20T02:33:32;7.18;;;3.67;;
71116;SDS011;58775;46.992;9.518;2023-08-20T02:35:33;10.30;;;4.25;;
71116;SDS011;58775;46.992;9.518;2023-08-20T02:37:35;11.20;;;4.22;;
71116;SDS011;58775;46.992;9.518;2023-08-20T02:39:36;8.37;;;4.03;;
71116;SDS011;58775;46.992;9.518;2023-08-20T02:41:37;10.32;;;4.28;;
71116;SDS011;58775;46.992;9.518;2023-08-20T02:43:38;12.35;;;4.10;;
71116;SDS011;58775;46.992;9.518;2023-08-20T02:45:39;11.83;;;4.70;;
71116;SDS011;58775;46.992;9.518;2023-08-20T02:47:42;8.68;;;3.58;;
71116;SDS011;58775;46.992;9.518;2023-08-20T02:49:43;7.18;;;3.53;;
71116;SDS011;58775;46.992;9.518;2023-08-20T02:51:45;10.70;;;4.30;;
71116;SDS011;58775;46.992;9.518;2023-08-20T02:53:45;8.75;;;4.10;;
71116;SDS011;58775;46.992;9.518;2023-08-20T02:55:46;6.28;;;3.70;;
71116;SDS011;58775;46.992;9.518;2023-08-20T02:57:47;8.77;;;3.72;;
71116;SDS011;58775;46.992;9.518;2023-08-20T02:59:48;11.23;;;3.63;;
71116;SDS011;58775;46.992;9.518;2023-08-20T03:01:49;10.48;;;3.80;;
71116;SDS011;58775;46.992;9.518;2023-08-20T03:03:50;11.00;;;4.22;;
71116;SDS011;58775;46.992;9.518;2023-08-20T03:05:51;7.50;;;3.70;;
71116;SDS011;58775;46.992;9.518;2023-08-20T03:07:52;10.48;;;3.67;;
71116;SDS011;58775;46.992;9.518;2023-08-20T03:09:53;10.20;;;4.30;;
71116;SDS011;58775;46.992;9.518;2023-08-20T03:11:54;8.38;;;3.83;;
71116;SDS011;58775;46.992;9.518;2023-08-20T03:13:55;10.50;;;3.50;;
71116;SDS011;58775;46.992;9.518;2023-08-20T03:15:56;9.57;;;4.07;;
71116;SDS011;58775;46.992;9.518;2023-08-20T03:17:57;7.80;;;4.05;;
71116;SDS011;58775;46.992;9.518;2023-08-20T03:19:59;7.30;;;4.10;;
71116;SDS011;58775;46.992;9.518;2023-08-20T03:22:01;10.27;;;4.25;;
71116;SDS011;58775;46.992;9.518;2023-08-20T03:24:02;8.37;;;3.83;;
71116;SDS011;58775;46.992;9.518;2023-08-20T03:26:02;7.50;;;4.10;;
71116;SDS011;58775;46.992;9.518;2023-08-20T03:28:03;9.73;;;3.97;;
71116;SDS011;58775;46.992;9.518;2023-08-20T03:30:06;8.70;;;3.95;;
71116;SDS011;58775;46.992;9.518;2023-08-20T03:32:07;7.10;;;4.00;;
71116;SDS011;58775;46.992;9.518;2023-08-20T03:34:09;8.13;;;4.10;;
71116;SDS011;58775;46.992;9.518;2023-08-20T03:36:11;10.77;;;4.10;;
71116;SDS011;58775;46.992;9.518;2023-08-20T03:38:12;8.50;;;4.13;;
71116;SDS011;58775;46.992;9.518;2023-08-20T03:40:13;9.48;;;4.05;;
71116;SDS011;58775;46.992;9.518;2023-08-20T03:42:16;9.80;;;4.28;;
71116;SDS011;58775;46.992;9.518;2023-08-20T03:44:18;8.75;;;3.92;;
71116;SDS011;58775;46.992;9.518;2023-08-20T03:46:19;9.65;;;4.38;;
71116;SDS011;58775;46.992;9.518;2023-08-20T03:48:20;8.85;;;3.40;;
71116;SDS011;58775;46.992;9.518;2023-08-20T03:50:21;8.38;;;3.70;;
71116;SDS011;58775;46.992;9.518;2023-08-20T03:52:22;8.40;;;3.78;;
71116;SDS011;58775;46.992;9.518;2023-08-20T03:54:24;9.05;;;4.00;;
71116;SDS011;58775;46.992;9.518;2023-08-20T03:56:25;9.17;;;4.10;;
71116;SDS011;58775;46.992;9.518;2023-08-20T03:58:26;9.10;;;4.20;;
71116;SDS011;58775;46.992;9.518;2023-08-20T04:00:27;10.93;;;4.10;;
71116;SDS011;58775;46.992;9.518;2023-08-20T04:02:28;6.93;;;3.83;;
71116;SDS011;58775;46.992;9.518;2023-08-20T04:04:29;12.68;;;4.38;;
71116;SDS011;58775;46.992;9.518;2023-08-20T04:06:30;9.27;;;3.40;;
71116;SDS011;58775;46.992;9.518;2023-08-20T04:08:31;8.13;;;3.85;;
71116;SDS011;58775;46.992;9.518;2023-08-20T04:10:32;8.10;;;3.72;;
71116;SDS011;58775;46.992;9.518;2023-08-20T04:12:33;7.82;;;3.80;;
71116;SDS011;58775;46.992;9.518;2023-08-20T04:14:34;6.77;;;3.87;;
71116;SDS011;58775;46.992;9.518;2023-08-20T04:16:35;9.57;;;3.88;;
71116;SDS011;58775;46.992;9.518;2023-08-20T04:18:36;7.32;;;3.97;;
71116;SDS011;58775;46.992;9.518;2023-08-20T04:20:37;8.05;;;3.67;;
71116;SDS011;58775;46.992;9.518;2023-08-20T04:22:38;7.03;;;3.92;;
71116;SDS011;58775;46.992;9.518;2023-08-20T04:24:39;7.60;;;3.90;;
71116;SDS011;58775;46.992;9.518;2023-08-20T04:26:40;7.38;;;3.80;;
71116;SDS011;58775;46.992;9.518;2023-08-20T04:28:41;10.63;;;3.70;;
71116;SDS011;58775;46.992;9.518;2023-08-20T04:30:42;8.30;;;3.77;;
71116;SDS011;58775;46.992;9.518;2023-08-20T04:32:45;8.15;;;3.67;;
71116;SDS011;58775;46.992;9.518;2023-08-20T04:34:46;9.63;;;3.92;;
71116;SDS011;58775;46.992;9.518;2023-08-20T04:36:49;9.95;;;4.07;;
71116;SDS011;58775;46.992;9.518;2023-08-20T04:38:51;10.23;;;4.60;;
71116;SDS011;58775;46.992;9.518;2023-08-20T04:40:52;12.65;;;4.10;;
71116;SDS011;58775;46.992;9.518;2023-08-20T04:42:53;7.95;;;4.28;;
71116;SDS011;58775;46.992;9.518;2023-08-20T04:44:54;11.37;;;4.40;;
71116;SDS011;58775;46.992;9.518;2023-08-20T04:46:56;8.98;;;3.63;;
71116;SDS011;58775;46.992;9.518;2023-08-20T04:48:57;7.47;;;3.83;;
71116;SDS011;58775;46.992;9.518;2023-08-20T04:50:58;8.63;;;3.75;;
71116;SDS011;58775;46.992;9.518;2023-08-20T04:53:01;8.52;;;3.95;;
71116;SDS011;58775;46.992;9.518;2023-08-20T04:55:02;8.67;;;3.93;;
71116;SDS011;58775;46.992;9.518;2023-08-20T04:57:03;8.40;;;3.38;;
71116;SDS011;58775;46.992;9.518;2023-08-20T04:59:04;9.57;;;3.22;;
71116;SDS011;58775;46.992;9.518;2023-08-20T05:01:31;6.68;;;3.63;;
71116;SDS011;58775;46.992;9.518;2023-08-20T05:03:32;8.73;;;3.63;;
71116;SDS011;58775;46.992;9.518;2023-08-20T05:05:33;9.77;;;4.10;;
71116;SDS011;58775;46.992;9.518;2023-08-20T05:07:35;9.88;;;3.80;;
71116;SDS011;58775;46.992;9.518;2023-08-20T05:09:36;6.88;;;3.40;;
71116;SDS011;58775;46.992;9.518;2023-08-20T05:11:36;7.73;;;3.53;;
71116;SDS011;58775;46.992;9.518;2023-08-20T05:13:38;6.45;;;3.60;;
71116;SDS011;58775;46.992;9.518;2023-08-20T05:15:39;9.38;;;3.92;;
71116;SDS011;58775;46.992;9.518;2023-08-20T05:17:40;9.18;;;4.35;;
71116;SDS011;58775;46.992;9.518;2023-08-20T05:19:41;7.93;;;3.70;;
71116;SDS011;58775;46.992;9.518;2023-08-20T05:21:43;6.65;;;3.78;;
71116;SDS011;58775;46.992;9.518;2023-08-20T05:23:45;9.73;;;4.22;;
71116;SDS011;58775;46.992;9.518;2023-08-20T05:25:46;14.98;;;4.13;;
71116;SDS011;58775;46.992;9.518;2023-08-20T05:27:47;8.48;;;3.97;;
71116;SDS011;58775;46.992;9.518;2023-08-20T05:29:48;10.50;;;4.18;;
71116;SDS011;58775;46.992;9.518;2023-08-20T05:31:50;10.02;;;3.70;;
71116;SDS011;58775;46.992;9.518;2023-08-20T05:33:54;6.68;;;3.85;;
71116;SDS011;58775;46.992;9.518;2023-08-20T05:35:55;14.95;;;4.38;;
71116;SDS011;58775;46.992;9.518;2023-08-20T05:37:56;9.93;;;3.73;;
71116;SDS011;58775;46.992;9.518;2023-08-20T05:39:57;11.55;;;3.83;;
71116;SDS011;58775;46.992;9.518;2023-08-20T05:41:59;11.88;;;4.45;;
71116;SDS011;58775;46.992;9.518;2023-08-20T05:44:01;9.63;;;4.03;;
71116;SDS011;58775;46.992;9.518;2023-08-20T05:46:02;9.13;;;4.10;;
71116;SDS011;58775;46.992;9.518;2023-08-20T05:48:03;11.70;;;4.10;;
71116;SDS011;58775;46.992;9.518;2023-08-20T05:50:04;8.50;;;3.85;;
71116;SDS011;58775;46.992;9.518;2023-08-20T05:52:06;8.70;;;4.45;;
71116;SDS011;58775;46.992;9.518;2023-08-20T05:54:08;8.13;;;4.57;;
71116;SDS011;58775;46.992;9.518;2023-08-20T05:56:09;7.60;;;4.15;;
71116;SDS011;58775;46.992;9.518;2023-08-20T05:58:10;6.80;;;4.00;;
71116;SDS011;58775;46.992;9.518;2023-08-20T06:00:11;6.97;;;4.00;;
71116;SDS011;58775;46.992;9.518;2023-08-20T06:02:18;9.00;;;4.28;;
71116;SDS011;58775;46.992;9.518;2023-08-20T06:04:19;7.90;;;4.25;;
71116;SDS011;58775;46.992;9.518;2023-08-20T06:06:20;8.68;;;4.53;;
71116;SDS011;58775;46.992;9.518;2023-08-20T06:08:22;7.28;;;4.20;;
71116;SDS011;58775;46.992;9.518;2023-08-20T06:10:23;9.60;;;4.40;;
71116;SDS011;58775;46.992;9.518;2023-08-20T06:12:24;8.90;;;4.88;;
71116;SDS011;58775;46.992;9.518;2023-08-20T06:14:25;7.65;;;4.30;;
71116;SDS011;58775;46.992;9.518;2023-08-20T06:16:26;9.73;;;4.13;;
71116;SDS011;58775;46.992;9.518;2023-08-20T06:18:27;7.95;;;4.50;;
71116;SDS011;58775;46.992;9.518;2023-08-20T06:20:28;8.32;;;4.63;;
71116;SDS011;58775;46.992;9.518;2023-08-20T06:22:29;8.90;;;4.60;;
71116;SDS011;58775;46.992;9.518;2023-08-20T06:24:32;11.48;;;4.10;;
71116;SDS011;58775;46.992;9.518;2023-08-20T06:26:33;7.28;;;4.68;;
71116;SDS011;58775;46.992;9.518;2023-08-20T06:28:34;8.10;;;4.20;;
71116;SDS011;58775;46.992;9.518;2023-08-20T06:30:35;7.32;;;4.18;;
71116;SDS011;58775;46.992;9.518;2023-08-20T06:32:38;8.18;;;4.53;;
71116;SDS011;58775;46.992;9.518;2023-08-20T06:34:39;8.75;;;4.60;;
71116;SDS011;58775;46.992;9.518;2023-08-20T06:36:40;8.23;;;4.97;;
71116;SDS011;58775;46.992;9.518;2023-08-20T06:38:42;8.25;;;4.38;;
71116;SDS011;58775;46.992;9.518;2023-08-20T06:40:43;8.30;;;4.60;;
71116;SDS011;58775;46.992;9.518;2023-08-20T06:42:44;7.43;;;4.75;;
71116;SDS011;58775;46.992;9.518;2023-08-20T06:44:44;8.43;;;4.87;;
71116;SDS011;58775;46.992;9.518;2023-08-20T06:46:46;9.85;;;4.78;;
71116;SDS011;58775;46.992;9.518;2023-08-20T06:48:46;8.18;;;4.90;;
71116;SDS011;58775;46.992;9.518;2023-08-20T06:50:47;8.95;;;5.18;;
71116;SDS011;58775;46.992;9.518;2023-08-20T06:52:48;8.73;;;4.73;;
71116;SDS011;58775;46.992;9.518;2023-08-20T06:54:49;6.95;;;4.80;;
71116;SDS011;58775;46.992;9.518;2023-08-20T06:56:50;8.98;;;4.85;;
71116;SDS011;58775;46.992;9.518;2023-08-20T06:58:51;8.23;;;4.85;;
71116;SDS011;58775;46.992;9.518;2023-08-20T07:00:52;9.10;;;5.40;;
71116;SDS011;58775;46.992;9.518;2023-08-20T07:02:54;7.65;;;5.00;;
71116;SDS011;58775;46.992;9.518;2023-08-20T07:04:55;8.35;;;4.85;;
71116;SDS011;58775;46.992;9.518;2023-08-20T07:06:56;6.70;;;4.70;;
71116;SDS011;58775;46.992;9.518;2023-08-20T07:08:57;10.43;;;4.67;;
71116;SDS011;58775;46.992;9.518;2023-08-20T07:10:58;7.72;;;5.22;;
71116;SDS011;58775;46.992;9.518;2023-08-20T07:12:59;9.98;;;4.82;;
71116;SDS011;58775;46.992;9.518;2023-08-20T07:15:00;6.85;;;4.82;;
71116;SDS011;58775;46.992;9.518;2023-08-20T07:17:02;7.63;;;4.80;;
71116;SDS011;58775;46.992;9.518;2023-08-20T07:19:03;10.50;;;5.00;;
71116;SDS011;58775;46.992;9.518;2023-08-20T07:21:04;9.43;;;5.55;;
71116;SDS011;58775;46.992;9.518;2023-08-20T07:23:05;8.57;;;5.25;;
71116;SDS011;58775;46.992;9.518;2023-08-20T07:25:06;7.55;;;5.13;;
71116;SDS011;58775;46.992;9.518;2023-08-20T07:27:08;11.07;;;5.00;;
71116;SDS011;58775;46.992;9.518;2023-08-20T07:29:12;8.73;;;5.22;;
71116;SDS011;58775;46.992;9.518;2023-08-20T07:31:13;7.68;;;4.93;;
71116;SDS011;58775;46.992;9.518;2023-08-20T07:33:14;7.93;;;4.75;;
71116;SDS011;58775;46.992;9.518;2023-08-20T07:35:15;10.00;;;5.20;;
71116;SDS011;58775;46.992;9.518;2023-08-20T07:37:16;8.98;;;4.90;;
71116;SDS011;58775;46.992;9.518;2023-08-20T07:39:18;10.40;;;5.70;;
71116;SDS011;58775;46.992;9.518;2023-08-20T07:41:19;6.43;;;5.00;;
71116;SDS011;58775;46.992;9.518;2023-08-20T07:43:20;9.05;;;5.13;;
71116;SDS011;58775;46.992;9.518;2023-08-20T07:45:21;8.02;;;5.30;;
71116;SDS011;58775;46.992;9.518;2023-08-20T07:47:22;7.85;;;5.10;;
71116;SDS011;58775;46.992;9.518;2023-08-20T07:49:23;8.50;;;5.82;;
71116;SDS011;58775;46.992;9.518;2023-08-20T07:51:24;8.75;;;5.70;;
71116;SDS011;58775;46.992;9.518;2023-08-20T07:53:25;8.95;;;5.93;;
71116;SDS011;58775;46.992;9.518;2023-08-20T07:55:27;6.22;;;5.60;;
71116;SDS011;58775;46.992;9.518;2023-08-20T07:57:28;8.40;;;5.43;;
71116;SDS011;58775;46.992;9.518;2023-08-20T07:59:28;7.32;;;5.25;;
71116;SDS011;58775;46.992;9.518;2023-08-20T08:01:29;6.53;;;4.95;;
71116;SDS011;58775;46.992;9.518;2023-08-20T08:03:31;10.87;;;5.67;;
71116;SDS011;58775;46.992;9.518;2023-08-20T08:05:32;11.88;;;5.00;;
71116;SDS011;58775;46.992;9.518;2023-08-20T08:07:34;8.45;;;5.07;;
71116;SDS011;58775;46.992;9.518;2023-08-20T08:09:37;6.65;;;5.07;;
71116;SDS011;58775;46.992;9.518;2023-08-20T08:11:38;11.35;;;5.78;;
71116;SDS011;58775;46.992;9.518;2023-08-20T08:13:39;7.40;;;4.80;;
71116;SDS011;58775;46.992;9.518;2023-08-20T08:15:40;7.82;;;5.40;;
71116;SDS011;58775;46.992;9.518;2023-08-20T08:17:43;7.75;;;5.60;;
71116;SDS011;58775;46.992;9.518;2023-08-20T08:19:46;9.13;;;5.40;;
71116;SDS011;58775;46.992;9.518;2023-08-20T08:21:49;7.18;;;5.97;;
71116;SDS011;58775;46.992;9.518;2023-08-20T08:23:50;7.50;;;4.80;;
71116;SDS011;58775;46.992;9.518;2023-08-20T08:25:52;8.77;;;5.97;;
71116;SDS011;58775;46.992;9.518;2023-08-20T08:27:56;8.45;;;5.82;;
71116;SDS011;58775;46.992;9.518;2023-08-20T08:29:57;7.80;;;5.70;;
71116;SDS011;58775;46.992;9.518;2023-08-20T08:31:58;6.88;;;6.00;;
71116;SDS011;58775;46.992;9.518;2023-08-20T08:34:02;8.30;;;5.63;;
71116;SDS011;58775;46.992;9.518;2023-08-20T08:36:06;6.95;;;5.47;;
71116;SDS011;58775;46.992;9.518;2023-08-20T08:38:08;12.23;;;5.60;;
71116;SDS011;58775;46.992;9.518;2023-08-20T08:40:09;9.45;;;5.53;;
71116;SDS011;58775;46.992;9.518;2023-08-20T08:42:11;9.85;;;5.95;;
71116;SDS011;58775;46.992;9.518;2023-08-20T08:44:13;8.63;;;5.50;;
71116;SDS011;58775;46.992;9.518;2023-08-20T08:46:15;8.20;;;5.65;;
71116;SDS011;58775;46.992;9.518;2023-08-20T08:48:18;8.43;;;5.72;;
71116;SDS011;58775;46.992;9.518;2023-08-20T08:50:20;7.03;;;5.53;;
71116;SDS011;58775;46.992;9.518;2023-08-20T08:52:24;7.95;;;5.65;;
71116;SDS011;58775;46.992;9.518;2023-08-20T08:54:26;9.67;;;5.47;;
71116;SDS011;58775;46.992;9.518;2023-08-20T08:56:27;7.07;;;5.72;;
71116;SDS011;58775;46.992;9.518;2023-08-20T08:58:28;8.27;;;5.82;;
71116;SDS011;58775;46.992;9.518;2023-08-20T09:00:29;7.47;;;5.70;;
71116;SDS011;58775;46.992;9.518;2023-08-20T09:02:33;7.88;;;5.72;;
71116;SDS011;58775;46.992;9.518;2023-08-20T09:04:34;6.90;;;5.57;;
71116;SDS011;58775;46.992;9.518;2023-08-20T09:06:48;7.45;;;5.80;;
71116;SDS011;58775;46.992;9.518;2023-08-20T09:08:50;9.30;;;5.93;;
71116;SDS011;58775;46.992;9.518;2023-08-20T09:11:04;9.95;;;5.85;;
71116;SDS011;58775;46.992;9.518;2023-08-20T09:13:06;7.25;;;6.15;;
71116;SDS011;58775;46.992;9.518;2023-08-20T09:15:11;7.73;;;5.43;;
71116;SDS011;58775;46.992;9.518;2023-08-20T09:17:12;9.70;;;5.80;;
71116;SDS011;58775;46.992;9.518;2023-08-20T09:19:13;8.00;;;5.45;;
71116;SDS011;58775;46.992;9.518;2023-08-20T09:21:14;7.05;;;5.68;;
71116;SDS011;58775;46.992;9.518;2023-08-20T09:23:16;7.45;;;5.35;;
71116;SDS011;58775;46.992;9.518;2023-08-20T09:25:17;9.33;;;5.97;;
71116;SDS011;58775;46.992;9.518;2023-08-20T09:27:18;8.18;;;5.78;;
71116;SDS011;58775;46.992;9.518;2023-08-20T09:29:20;7.65;;;5.60;;
71116;SDS011;58775;46.992;9.518;2023-08-20T09:31:21;7.28;;;5.63;;
71116;SDS011;58775;46.992;9.518;2023-08-20T09:33:51;11.95;;;6.00;;
71116;SDS011;58775;46.992;9.518;2023-08-20T09:35:53;10.27;;;6.67;;
71116;SDS011;58775;46.992;9.518;2023-08-20T09:37:59;8.07;;;5.93;;
71116;SDS011;58775;46.992;9.518;2023-08-20T09:40:01;8.52;;;6.25;;
71116;SDS011;58775;46.992;9.518;2023-08-20T09:42:03;8.52;;;6.20;;
71116;SDS011;58775;46.992;9.518;2023-08-20T09:44:06;8.32;;;5.88;;
71116;SDS011;58775;46.992;9.518;2023-08-20T09:46:08;8.17;;;6.47;;
71116;SDS011;58775;46.992;9.518;2023-08-20T09:48:11;8.07;;;6.07;;
71116;SDS011;58775;46.992;9.518;2023-08-20T09:50:20;9.18;;;6.45;;
71116;SDS011;58775;46.992;9.518;2023-08-20T09:52:28;8.20;;;6.07;;
71116;SDS011;58775;46.992;9.518;2023-08-20T09:57:00;7.77;;;5.57;;
71116;SDS011;58775;46.992;9.518;2023-08-20T09:59:04;8.93;;;6.40;;
71116;SDS011;58775;46.992;9.518;2023-08-20T10:01:06;8.02;;;6.00;;
71116;SDS011;58775;46.992;9.518;2023-08-20T10:03:08;10.32;;;6.50;;
71116;SDS011;58775;46.992;9.518;2023-08-20T10:05:10;6.97;;;6.10;;
71116;SDS011;58775;46.992;9.518;2023-08-20T10:07:12;8.43;;;6.00;;
71116;SDS011;58775;46.992;9.518;2023-08-20T10:09:16;7.82;;;5.75;;
71116;SDS011;58775;46.992;9.518;2023-08-20T10:11:18;10.07;;;6.90;;
71116;SDS011;58775;46.992;9.518;2023-08-20T10:13:19;9.00;;;6.20;;
71116;SDS011;58775;46.992;9.518;2023-08-20T10:15:20;9.70;;;6.90;;
71116;SDS011;58775;46.992;9.518;2023-08-20T10:17:22;9.15;;;6.85;;
71116;SDS011;58775;46.992;9.518;2023-08-20T10:19:25;10.13;;;6.70;;
71116;SDS011;58775;46.992;9.518;2023-08-20T10:21:27;9.05;;;6.55;;
71116;SDS011;58775;46.992;9.518;2023-08-20T10:23:28;8.63;;;7.07;;
71116;SDS011;58775;46.992;9.518;2023-08-20T10:25:29;11.63;;;6.77;;
71116;SDS011;58775;46.992;9.518;2023-08-20T10:27:31;10.82;;;6.70;;
71116;SDS011;58775;46.992;9.518;2023-08-20T10:29:39;11.00;;;6.38;;
71116;SDS011;58775;46.992;9.518;2023-08-20T10:31:46;7.30;;;5.90;;
71116;SDS011;58775;46.992;9.518;2023-08-20T10:33:53;6.85;;;5.90;;
71116;SDS011;58775;46.992;9.518;2023-08-20T10:35:56;8.17;;;6.30;;
71116;SDS011;58775;46.992;9.518;2023-08-20T10:38:06;9.85;;;6.30;;
71116;SDS011;58775;46.992;9.518;2023-08-20T10:40:11;8.75;;;6.43;;
71116;SDS011;58775;46.992;9.518;2023-08-20T10:44:16;12.95;;;6.45;;
71116;SDS011;58775;46.992;9.518;2023-08-20T10:46:18;10.40;;;6.10;;
71116;SDS011;58775;46.992;9.518;2023-08-20T10:48:21;7.10;;;5.82;;
71116;SDS011;58775;46.992;9.518;2023-08-20T10:50:24;7.93;;;6.90;;
71116;SDS011;58775;46.992;9.518;2023-08-20T10:52:31;8.63;;;6.60;;
71116;SDS011;58775;46.992;9.518;2023-08-20T10:54:33;9.13;;;6.28;;
71116;SDS011;58775;46.992;9.518;2023-08-20T10:58:49;9.82;;;6.65;;
71116;SDS011;58775;46.992;9.518;2023-08-20T11:01:32;7.15;;;5.85;;
71116;SDS011;58775;46.992;9.518;2023-08-20T11:03:16;8.07;;;6.28;;
71116;SDS011;58775;46.992;9.518;2023-08-20T11:05:18;9.40;;;6.45;;
71116;SDS011;58775;46.992;9.518;2023-08-20T11:07:21;7.70;;;5.83;;
71116;SDS011;58775;46.992;9.518;2023-08-20T11:09:26;10.15;;;6.28;;
71116;SDS011;58775;46.992;9.518;2023-08-20T11:11:29;7.97;;;6.50;;
71116;SDS011;58775;46.992;9.518;2023-08-20T11:13:32;7.00;;;6.00;;
71116;SDS011;58775;46.992;9.518;2023-08-20T11:15:33;9.57;;;6.57;;
71116;SDS011;58775;46.992;9.518;2023-08-20T11:17:35;8.40;;;6.13;;
71116;SDS011;58775;46.992;9.518;2023-08-20T11:19:41;9.13;;;5.93;;
71116;SDS011;58775;46.992;9.518;2023-08-20T11:21:43;8.85;;;6.47;;
71116;SDS011;58775;46.992;9.518;2023-08-20T11:23:44;11.15;;;6.00;;
71116;SDS011;58775;46.992;9.518;2023-08-20T11:25:47;9.38;;;5.85;;
71116;SDS011;58775;46.992;9.518;2023-08-20T11:27:48;6.97;;;5.47;;
71116;SDS011;58775;46.992;9.518;2023-08-20T11:29:52;8.63;;;5.72;;
71116;SDS011;58775;46.992;9.518;2023-08-20T11:31:54;7.47;;;5.97;;
71116;SDS011;58775;46.992;9.518;2023-08-20T11:33:56;9.90;;;6.30;;
71116;SDS011;58775;46.992;9.518;2023-08-20T11:35:58;9.40;;;6.47;;
71116;SDS011;58775;46.992;9.518;2023-08-20T11:37:59;7.53;;;6.00;;
71116;SDS011;58775;46.992;9.518;2023-08-20T11:40:01;10.65;;;6.57;;
71116;SDS011;58775;46.992;9.518;2023-08-20T11:42:02;7.68;;;5.75;;
71116;SDS011;58775;46.992;9.518;2023-08-20T11:44:04;8.10;;;5.53;;
71116;SDS011;58775;46.992;9.518;2023-08-20T11:46:05;8.23;;;6.13;;
71116;SDS011;58775;46.992;9.518;2023-08-20T11:48:08;7.90;;;5.87;;
71116;SDS011;58775;46.992;9.518;2023-08-20T11:50:09;10.38;;;6.20;;
71116;SDS011;58775;46.992;9.518;2023-08-20T11:52:11;9.45;;;6.57;;
71116;SDS011;58775;46.992;9.518;2023-08-20T11:54:15;9.88;;;6.07;;
71116;SDS011;58775;46.992;9.518;2023-08-20T11:56:18;10.13;;;6.75;;
71116;SDS011;58775;46.992;9.518;2023-08-20T11:58:19;8.90;;;6.30;;
71116;SDS011;58775;46.992;9.518;2023-08-20T12:00:25;10.35;;;7.65;;
71116;SDS011;58775;46.992;9.518;2023-08-20T12:02:27;8.95;;;6.40;;
71116;SDS011;58775;46.992;9.518;2023-08-20T12:04:28;10.88;;;6.45;;
71116;SDS011;58775;46.992;9.518;2023-08-20T12:06:30;9.60;;;7.22;;
71116;SDS011;58775;46.992;9.518;2023-08-20T12:08:37;7.97;;;6.20;;
71116;SDS011;58775;46.992;9.518;2023-08-20T12:10:41;8.15;;;6.30;;
71116;SDS011;58775;46.992;9.518;2023-08-20T12:12:43;10.05;;;6.40;;
71116;SDS011;58775;46.992;9.518;2023-08-20T12:14:45;9.98;;;6.40;;
71116;SDS011;58775;46.992;9.518;2023-08-20T12:16:47;9.13;;;6.15;;
71116;SDS011;58775;46.992;9.518;2023-08-20T12:18:48;6.93;;;6.22;;
71116;SDS011;58775;46.992;9.518;2023-08-20T12:20:49;10.32;;;5.95;;
71116;SDS011;58775;46.992;9.518;2023-08-20T12:22:51;9.07;;;6.10;;
71116;SDS011;58775;46.992;9.518;2023-08-20T12:24:52;6.90;;;5.60;;